Time;durP1;ratioP1;P1;durP2;ratioP2;P2;SDS_P1;SDS_P2;PMS_P1;PMS_P2;Temp;Humidity;BMP_temperature;BMP_pressure;BME280_temperature;BME280_humidity;BME280_pressure;Samples;Min_cycle;Max_cycle;Signal;HPM_P1;HPM_P2
2022/10/01 00:02:24;;;;;;;12.43;6.93;;;;;;;14.69;52.72;100731.63;5033506;28;96955;-65
2022/10/01 00:04:51;;;;;;;13.35;6.65;;;;;;;14.78;52.72;100727.59;5032133;28;99389;-66
2022/10/01 00:07:18;;;;;;;9.18;6.07;;;;;;;14.73;52.88;100730.53;5031756;27;99085;-67
2022/10/01 00:09:47;;;;;;;8.15;6.22;;;;;;;14.77;52.78;100717.06;5032876;28;97518;-66
2022/10/01 00:12:14;;;;;;;10.45;6.97;;;;;;;14.74;52.70;100721.59;5033194;28;96864;-66
2022/10/01 00:14:41;;;;;;;11.48;7.07;;;;;;;14.86;52.57;100720.09;5029517;28;99068;-66
2022/10/01 00:17:07;;;;;;;8.35;6.60;;;;;;;14.75;52.67;100714.50;5032117;27;98970;-67
2022/10/01 00:19:35;;;;;;;10.40;7.35;;;;;;;14.64;53.07;100708.84;5033013;28;97296;-67
2022/10/01 00:22:03;;;;;;;9.63;6.95;;;;;;;14.68;52.85;100713.09;5033629;27;97700;-67
2022/10/01 00:24:35;;;;;;;11.15;7.25;;;;;;;14.71;53.00;100711.13;5032208;28;97757;-66
2022/10/01 00:27:01;;;;;;;10.38;6.82;;;;;;;14.64;52.82;100715.03;5032642;28;99423;-66
2022/10/01 00:29:28;;;;;;;11.82;7.22;;;;;;;14.61;53.11;100719.66;5032013;28;96998;-66
2022/10/01 00:31:55;;;;;;;12.80;7.32;;;;;;;14.72;52.90;100715.50;5032859;27;96874;-66
2022/10/01 00:34:21;;;;;;;16.77;7.53;;;;;;;14.57;53.09;100710.97;5031774;28;98861;-65
2022/10/01 00:36:48;;;;;;;12.13;6.75;;;;;;;14.66;52.96;100706.97;5032073;28;99223;-66
2022/10/01 00:39:14;;;;;;;11.15;7.22;;;;;;;14.46;53.43;100713.34;5033125;28;96655;-65
2022/10/01 00:41:42;;;;;;;10.57;6.75;;;;;;;14.61;53.13;100704.56;5032796;28;96955;-66
2022/10/01 00:44:33;;;;;;;10.00;7.40;;;;;;;14.57;53.60;100699.50;5032463;28;99022;-66
2022/10/01 00:47:09;;;;;;;11.00;7.18;;;;;;;14.53;53.53;100696.13;5030823;28;99063;-66
2022/10/01 00:49:37;;;;;;;9.60;6.77;;;;;;;14.65;53.21;100694.63;5032747;28;96860;-66
2022/10/01 00:52:08;;;;;;;10.65;8.10;;;;;;;14.64;53.18;100688.44;5032448;28;97046;-66
2022/10/01 00:54:39;;;;;;;9.25;6.43;;;;;;;14.77;52.66;100687.81;5027937;28;98868;-67
2022/10/01 00:57:11;;;;;;;10.65;7.28;;;;;;;14.75;52.78;100688.75;5030096;28;98386;-67
2022/10/01 00:59:38;;;;;;;11.52;7.28;;;;;;;14.65;53.09;100689.31;5028257;27;97075;-66
2022/10/01 01:02:07;;;;;;;13.20;7.22;;;;;;;14.65;52.97;100684.00;5031103;28;96914;-66
2022/10/01 01:04:38;;;;;;;11.18;7.80;;;;;;;14.77;52.80;100686.00;5030034;28;98912;-65
2022/10/01 01:07:06;;;;;;;10.52;7.63;;;;;;;14.72;52.88;100685.38;5022144;27;98929;-66
2022/10/01 01:09:35;;;;;;;10.18;7.28;;;;;;;14.57;53.16;100684.38;5027128;28;96828;-65
2022/10/01 01:12:23;;;;;;;8.65;7.22;;;;;;;14.62;53.17;100689.47;5032592;27;96877;-67
2022/10/01 01:14:59;;;;;;;13.80;7.55;;;;;;;14.62;53.15;100674.38;5024781;27;99113;-65
2022/10/01 01:17:32;;;;;;;11.20;7.47;;;;;;;14.31;54.09;100679.53;5028557;28;99537;-66
2022/10/01 01:20:17;;;;;;;10.35;8.00;;;;;;;14.65;53.14;100684.84;5031036;28;97279;-65
2022/10/01 01:22:53;;;;;;;14.05;7.43;;;;;;;14.61;53.29;100677.13;5028398;27;98848;-66
2022/10/01 01:25:27;;;;;;;11.00;7.55;;;;;;;14.62;53.36;100679.72;5029248;28;99200;-66
2022/10/01 01:28:11;;;;;;;13.05;8.20;;;;;;;14.43;53.55;100676.31;5026288;28;99183;-66
2022/10/01 01:30:40;;;;;;;9.63;7.22;;;;;;;14.43;53.88;100673.66;5024118;28;97716;-66
2022/10/01 01:33:12;;;;;;;12.13;7.20;;;;;;;14.59;53.50;100668.34;5023471;28;97333;-66
2022/10/01 01:35:42;;;;;;;10.90;7.97;;;;;;;14.47;53.76;100669.88;5023719;27;99239;-68
2022/10/01 01:38:13;;;;;;;9.25;7.30;;;;;;;14.55;53.44;100662.34;5025322;27;98863;-65
2022/10/01 01:40:43;;;;;;;9.18;7.47;;;;;;;14.52;53.58;100657.19;5025276;27;97222;-65
2022/10/01 01:43:19;;;;;;;8.60;7.50;;;;;;;14.20;54.48;100650.88;5030335;27;97403;-65
2022/10/01 01:45:49;;;;;;;10.48;7.45;;;;;;;14.43;53.90;100652.38;5027274;27;99103;-65
2022/10/01 01:48:15;;;;;;;31.95;8.48;;;;;;;14.47;53.60;100651.25;5027136;27;97573;-71
2022/10/01 01:50:47;;;;;;;9.82;7.50;;;;;;;14.36;53.70;100640.31;5027977;27;96848;-65
2022/10/01 01:53:14;;;;;;;22.08;9.00;;;;;;;14.32;54.08;100642.25;5028804;28;96794;-65
2022/10/01 01:55:43;;;;;;;11.25;7.63;;;;;;;14.37;54.17;100647.34;5029991;28;99881;-66
2022/10/01 01:58:12;;;;;;;10.63;7.90;;;;;;;14.20;54.54;100640.25;5026136;28;99207;-66
2022/10/01 02:00:39;;;;;;;12.13;7.85;;;;;;;14.29;54.39;100638.91;5029764;27;96824;-66
2022/10/01 02:03:08;;;;;;;11.27;8.48;;;;;;;14.22;54.51;100633.06;5031254;28;97031;-66
2022/10/01 02:05:43;;;;;;;11.85;8.80;;;;;;;14.17;54.68;100639.56;5029242;27;99013;-65
2022/10/01 02:08:34;;;;;;;10.80;8.68;;;;;;;14.17;54.77;100647.53;5027098;27;99056;-65
2022/10/01 02:11:30;;;;;;;13.07;8.43;;;;;;;14.12;55.09;100639.78;5028334;28;97172;-65
2022/10/01 02:14:06;;;;;;;11.05;8.27;;;;;;;14.30;54.55;100641.50;5026184;27;97758;-65
2022/10/01 02:16:44;;;;;;;12.00;9.00;;;;;;;13.99;55.31;100641.34;5027910;28;99215;-65
2022/10/01 02:19:21;;;;;;;16.70;8.88;;;;;;;14.23;54.68;100639.25;5028702;28;98781;-65
2022/10/01 02:21:58;;;;;;;16.33;8.82;;;;;;;14.14;54.83;100643.22;5030945;27;96834;-65
2022/10/01 02:24:35;;;;;;;15.15;9.10;;;;;;;14.29;54.60;100639.78;5024880;27;97470;-65
2022/10/01 02:27:07;;;;;;;10.32;8.20;;;;;;;14.29;54.48;100639.78;5028521;28;99070;-65
2022/10/01 02:29:37;;;;;;;14.38;8.82;;;;;;;14.17;54.80;100632.44;5031001;27;99007;-65
2022/10/01 02:32:04;;;;;;;14.38;9.57;;;;;;;14.05;55.23;100640.16;5034344;28;96932;-65
2022/10/01 02:34:32;;;;;;;10.95;8.10;;;;;;;14.00;55.49;100652.84;5032760;28;98752;-66
2022/10/01 02:37:03;;;;;;;14.27;8.82;;;;;;;13.95;55.51;100647.75;5033013;28;99013;-66
2022/10/01 02:39:33;;;;;;;9.82;8.82;;;;;;;13.73;56.11;100641.81;5032694;27;98802;-66
2022/10/01 02:42:02;;;;;;;10.95;9.07;;;;;;;14.02;55.29;100640.34;5030519;27;98255;-67
2022/10/01 02:44:36;;;;;;;10.70;8.48;;;;;;;13.99;55.38;100636.03;5033696;28;97155;-66
2022/10/01 02:47:07;;;;;;;14.05;9.13;;;;;;;13.96;55.30;100631.75;5032035;27;98964;-66
2022/10/01 02:49:41;;;;;;;12.45;8.38;;;;;;;13.94;55.12;100627.44;5031839;27;97695;-66
2022/10/01 02:52:12;;;;;;;16.48;9.43;;;;;;;13.89;55.38;100629.47;5033356;28;96845;-65
2022/10/01 02:54:47;;;;;;;19.25;9.48;;;;;;;13.98;55.13;100624.53;5032742;27;96883;-65
2022/10/01 02:57:26;;;;;;;13.13;8.63;;;;;;;14.02;55.06;100625.25;5030582;27;99421;-65
2022/10/01 02:59:54;;;;;;;12.88;8.93;;;;;;;13.95;55.07;100619.41;5029962;28;98830;-66
2022/10/01 03:02:23;;;;;;;10.60;8.40;;;;;;;13.78;55.61;100624.72;5033777;28;96778;-66
2022/10/01 03:04:49;;;;;;;15.98;9.00;;;;;;;13.61;56.05;100618.53;5032426;28;98124;-64
2022/10/01 03:07:17;;;;;;;12.02;9.32;;;;;;;13.80;55.43;100628.16;5031931;27;99163;-66
2022/10/01 03:09:46;;;;;;;14.82;9.65;;;;;;;13.72;55.52;100625.00;5032103;27;99388;-66
2022/10/01 03:12:13;;;;;;;14.70;8.90;;;;;;;13.48;56.18;100619.13;5034070;28;96675;-65
2022/10/01 03:14:42;;;;;;;14.57;8.65;;;;;;;13.76;55.48;100612.44;5032531;27;96940;-68
2022/10/01 03:17:09;;;;;;;11.77;8.88;;;;;;;13.69;55.49;100603.94;5027349;27;99043;-66
2022/10/01 03:19:37;;;;;;;12.18;8.80;;;;;;;13.80;55.09;100603.38;5033017;27;99002;-66
2022/10/01 03:22:03;;;;;;;15.98;9.02;;;;;;;13.79;55.16;100604.31;5033046;27;97131;-65
2022/10/01 03:24:31;;;;;;;12.40;8.57;;;;;;;13.82;54.71;100601.50;5028305;27;96988;-65
2022/10/01 03:26:59;;;;;;;10.90;8.15;;;;;;;13.94;54.47;100599.09;5030545;27;98987;-67
2022/10/01 03:29:28;;;;;;;13.40;8.55;;;;;;;13.85;54.57;100596.88;5031953;28;99379;-66
2022/10/01 03:31:57;;;;;;;9.20;8.20;;;;;;;13.90;54.37;100594.88;5031424;27;98490;-65
2022/10/01 03:34:24;;;;;;;11.13;8.32;;;;;;;14.10;53.77;100595.66;5025398;27;99527;-65
2022/10/01 03:36:54;;;;;;;12.55;8.32;;;;;;;13.93;54.23;100586.75;5032504;27;97491;-67
2022/10/01 03:39:22;;;;;;;11.43;8.05;;;;;;;13.81;54.53;100582.06;5032729;27;99220;-66
2022/10/01 03:41:49;;;;;;;9.75;7.25;;;;;;;13.75;54.71;100579.72;5032752;27;96790;-65
2022/10/01 03:44:16;;;;;;;11.13;8.57;;;;;;;13.75;54.82;100573.56;5029685;27;97245;-65
2022/10/01 03:46:42;;;;;;;11.10;8.20;;;;;;;13.79;54.53;100565.34;5030497;28;98514;-66
2022/10/01 03:49:11;;;;;;;13.85;8.35;;;;;;;13.91;54.42;100572.66;5032980;27;98125;-66
2022/10/01 03:51:38;;;;;;;13.07;8.13;;;;;;;13.85;54.46;100564.16;5030927;27;99127;-67
2022/10/01 03:54:07;;;;;;;12.35;8.23;;;;;;;13.63;54.81;100560.91;5032448;27;96786;-65
2022/10/01 03:56:37;;;;;;;10.98;7.78;;;;;;;13.64;54.72;100558.19;5030725;28;97699;-66
2022/10/01 03:59:07;;;;;;;15.00;7.75;;;;;;;13.63;54.96;100569.72;5030165;28;98789;-66
2022/10/01 04:01:34;;;;;;;10.05;7.88;;;;;;;13.70;54.71;100560.53;5029090;28;96875;-66
2022/10/01 04:04:01;;;;;;;14.52;7.90;;;;;;;13.43;55.47;100562.78;5030917;27;96879;-66
2022/10/01 04:06:27;;;;;;;11.82;8.32;;;;;;;13.57;55.05;100554.13;5027667;28;100843;-66
2022/10/01 04:08:55;;;;;;;13.07;7.70;;;;;;;13.59;54.91;100557.53;5028917;27;98784;-66
2022/10/01 04:11:29;;;;;;;11.70;7.40;;;;;;;13.72;54.52;100560.44;5031371;28;96845;-66
2022/10/01 04:13:56;;;;;;;15.15;7.68;;;;;;;13.72;54.22;100558.63;5032216;27;96862;-66
2022/10/01 04:16:23;;;;;;;13.25;7.55;;;;;;;13.66;54.54;100558.94;5029837;27;99951;-66
2022/10/01 04:18:53;;;;;;;10.70;7.00;;;;;;;13.57;54.58;100559.44;5029153;27;99366;-65
2022/10/01 04:21:19;;;;;;;10.32;7.25;;;;;;;13.76;54.13;100557.53;5025822;28;97529;-66
2022/10/01 04:23:46;;;;;;;9.25;7.05;;;;;;;13.76;54.42;100552.25;5028006;27;96967;-66
2022/10/01 04:26:12;;;;;;;9.77;7.20;;;;;;;13.56;54.57;100549.75;5030658;28;97690;-66
2022/10/01 04:28:43;;;;;;;12.30;7.40;;;;;;;13.61;54.60;100544.19;5032367;27;101000;-66
2022/10/01 04:31:25;;;;;;;10.15;7.65;;;;;;;13.47;54.96;100544.88;5027860;28;96781;-65
2022/10/01 04:33:52;;;;;;;12.63;7.07;;;;;;;13.51;54.67;100543.81;5032115;27;97268;-66
2022/10/01 04:36:19;;;;;;;13.15;7.55;;;;;;;13.57;54.69;100546.16;5031915;28;99316;-66
2022/10/01 04:38:50;;;;;;;13.68;7.47;;;;;;;13.62;54.41;100543.25;5031035;28;99588;-68
2022/10/01 04:41:16;;;;;;;10.15;7.60;;;;;;;13.66;54.41;100548.31;5029719;28;96975;-66
2022/10/01 04:43:44;;;;;;;13.75;6.97;;;;;;;13.48;54.84;100536.84;5030149;27;96836;-66
2022/10/01 04:46:10;;;;;;;10.20;7.07;;;;;;;13.35;55.00;100546.38;5029421;28;99329;-65
2022/10/01 04:48:37;;;;;;;9.02;7.07;;;;;;;13.31;55.30;100543.94;5032995;28;100847;-65
2022/10/01 04:51:03;;;;;;;16.27;7.32;;;;;;;13.31;55.36;100536.84;5031848;27;96768;-66
2022/10/01 04:53:29;;;;;;;11.70;7.45;;;;;;;13.28;55.17;100541.44;5030546;27;97405;-65
2022/10/01 04:55:56;;;;;;;9.75;7.47;;;;;;;13.41;55.22;100537.22;5028632;27;97881;-67
2022/10/01 04:58:22;;;;;;;12.43;6.57;;;;;;;13.41;55.04;100534.56;5028003;28;98850;-65
2022/10/01 05:00:50;;;;;;;11.02;7.05;;;;;;;13.65;54.28;100533.34;5031079;27;96727;-66
2022/10/01 05:03:20;;;;;;;10.55;6.68;;;;;;;13.55;54.30;100530.28;5026252;28;98343;-66
2022/10/01 05:05:46;;;;;;;9.68;6.55;;;;;;;13.67;54.16;100523.50;5028991;28;99095;-66
2022/10/01 05:08:14;;;;;;;9.55;7.15;;;;;;;13.75;53.78;100516.00;5028705;27;98831;-66
2022/10/01 05:10:40;;;;;;;10.95;6.55;;;;;;;13.75;53.87;100521.31;5030939;28;96855;-66
2022/10/01 05:13:09;;;;;;;8.10;6.38;;;;;;;13.48;54.49;100526.22;5030488;28;97172;-66
2022/10/01 05:15:35;;;;;;;10.98;6.05;;;;;;;13.54;54.63;100525.06;5025574;27;99257;-66
2022/10/01 05:18:03;;;;;;;9.23;6.75;;;;;;;13.26;55.35;100524.75;5031072;28;99006;-66
2022/10/01 05:20:32;;;;;;;8.98;6.55;;;;;;;13.30;55.47;100532.47;5029097;27;97745;-65
2022/10/01 05:22:59;;;;;;;8.68;6.93;;;;;;;13.39;54.95;100521.38;5030138;27;98254;-65
2022/10/01 05:25:27;;;;;;;10.38;7.22;;;;;;;13.45;54.82;100525.53;5032064;27;96919;-66
2022/10/01 05:28:04;;;;;;;10.52;6.70;;;;;;;13.61;54.23;100521.16;5024893;27;99932;-65
2022/10/01 05:30:30;;;;;;;9.90;6.40;;;;;;;13.72;54.18;100515.31;5026537;28;96831;-66
2022/10/01 05:32:59;;;;;;;8.93;6.50;;;;;;;13.73;53.95;100515.19;5024910;28;96889;-65
2022/10/01 05:35:27;;;;;;;9.05;6.50;;;;;;;13.57;54.36;100514.28;5030156;28;99214;-66
2022/10/01 05:38:00;;;;;;;9.05;5.93;;;;;;;13.62;54.53;100516.69;5027690;28;98113;-66
2022/10/01 05:40:28;;;;;;;8.80;6.28;;;;;;;13.69;54.29;100513.66;5030819;28;96810;-66
2022/10/01 05:42:56;;;;;;;9.25;6.10;;;;;;;13.64;54.27;100507.72;5030589;27;96984;-66
2022/10/01 05:45:24;;;;;;;8.50;6.55;;;;;;;13.75;54.12;100500.06;5028374;27;99522;-67
2022/10/01 05:47:57;;;;;;;8.00;6.25;;;;;;;13.79;53.98;100490.97;5029298;28;99045;-66
2022/10/01 05:50:25;;;;;;;8.48;5.93;;;;;;;13.72;54.10;100496.72;5031663;28;96735;-67
2022/10/01 05:52:53;;;;;;;8.55;6.25;;;;;;;13.81;53.89;100494.44;5030123;27;98401;-66
2022/10/01 05:55:20;;;;;;;8.85;6.00;;;;;;;13.85;53.73;100488.00;5030360;28;99185;-66
2022/10/01 05:57:55;;;;;;;9.02;5.93;;;;;;;13.74;54.00;100482.41;5029021;28;99096;-65
2022/10/01 06:00:21;;;;;;;9.88;5.97;;;;;;;13.95;53.73;100475.09;5025758;27;97257;-66
2022/10/01 06:02:50;;;;;;;8.88;6.40;;;;;;;13.98;53.54;100476.75;5028841;27;96958;-66
2022/10/01 06:05:17;;;;;;;7.45;5.85;;;;;;;14.18;52.92;100461.41;5031110;28;99678;-66
2022/10/01 06:07:43;;;;;;;10.07;5.53;;;;;;;14.09;53.17;100467.25;5030349;28;99171;-66
2022/10/01 06:10:11;;;;;;;8.95;5.75;;;;;;;14.10;53.32;100458.34;5034651;28;96776;-67
2022/10/01 06:12:38;;;;;;;8.75;6.20;;;;;;;14.01;53.40;100455.31;5032113;27;96927;-67
2022/10/01 06:15:04;;;;;;;8.20;6.05;;;;;;;14.08;53.47;100460.22;5032135;27;99268;-66
2022/10/01 06:17:31;;;;;;;7.70;5.10;;;;;;;14.28;52.93;100457.31;5032503;27;101712;-66
2022/10/01 06:19:57;;;;;;;8.55;6.03;;;;;;;14.33;53.00;100443.78;5031515;28;98121;-67
2022/10/01 06:22:27;;;;;;;7.65;5.22;;;;;;;14.24;53.06;100446.97;5033505;28;96799;-66
2022/10/01 06:24:54;;;;;;;6.95;4.95;;;;;;;14.09;53.52;100447.78;5033961;27;98012;-66
2022/10/01 06:27:22;;;;;;;10.90;5.75;;;;;;;14.43;52.70;100445.03;5033779;28;98886;-66
2022/10/01 06:29:48;;;;;;;8.50;5.80;;;;;;;14.49;52.68;100439.38;5033286;27;96876;-66
2022/10/01 06:32:18;;;;;;;7.03;5.75;;;;;;;14.59;52.42;100445.84;5027690;27;98641;-66
2022/10/01 06:34:45;;;;;;;6.35;5.30;;;;;;;14.58;52.30;100438.81;5030099;28;98227;-66
2022/10/01 06:37:13;;;;;;;7.53;4.82;;;;;;;14.45;52.56;100435.13;5034042;28;98775;-65
2022/10/01 06:39:39;;;;;;;8.68;5.43;;;;;;;14.52;52.63;100435.66;5028588;28;98293;-66
2022/10/01 06:42:06;;;;;;;9.63;5.15;;;;;;;14.39;52.68;100432.84;5030783;27;96998;-66
2022/10/01 06:44:33;;;;;;;7.70;5.30;;;;;;;14.62;52.45;100436.88;5032495;28;98946;-67
2022/10/01 06:47:02;;;;;;;10.07;5.47;;;;;;;14.67;52.16;100438.31;5031812;28;99115;-67
2022/10/01 06:49:29;;;;;;;10.23;5.93;;;;;;;14.69;52.13;100433.78;5033512;28;97140;-67
2022/10/01 06:54:39;;;;;;;10.52;5.78;;;;;;;14.59;52.46;100421.94;5028842;28;97214;-67
2022/10/01 06:57:06;;;;;;;11.40;5.93;;;;;;;14.51;52.71;100413.53;5027347;27;97886;-65
2022/10/01 06:59:35;;;;;;;9.05;5.65;;;;;;;14.77;52.18;100408.53;5034016;27;96987;-65
2022/10/01 07:02:02;;;;;;;9.13;5.47;;;;;;;14.71;52.44;100407.06;5031792;27;97765;-66
2022/10/01 07:04:28;;;;;;;9.32;4.90;;;;;;;14.66;52.51;100395.84;5031686;27;97955;-66
2022/10/01 07:06:55;;;;;;;9.48;5.65;;;;;;;14.74;52.01;100393.59;5031172;28;99066;-67
2022/10/01 07:09:25;;;;;;;13.88;6.63;;;;;;;14.82;52.19;100403.81;5032146;27;97115;-67
2022/10/01 07:11:52;;;;;;;8.30;5.53;;;;;;;14.87;52.37;100393.75;5030183;28;96746;-65
2022/10/01 07:14:20;;;;;;;9.48;5.85;;;;;;;14.86;52.34;100392.03;5031360;27;98380;-66
2022/10/01 07:16:48;;;;;;;9.80;5.93;;;;;;;14.97;52.14;100393.09;5029639;27;98861;-65
2022/10/01 07:19:14;;;;;;;8.73;5.72;;;;;;;14.86;52.41;100387.56;5031961;28;96799;-66
2022/10/01 07:21:40;;;;;;;9.93;6.05;;;;;;;14.73;52.68;100389.22;5033446;27;96999;-66
2022/10/01 07:24:07;;;;;;;9.38;5.50;;;;;;;14.94;52.45;100382.66;5029871;27;100292;-68
2022/10/01 07:26:33;;;;;;;7.72;5.78;;;;;;;14.92;52.07;100373.03;5032574;27;99394;-66
2022/10/01 07:29:00;;;;;;;8.40;5.70;;;;;;;15.07;51.93;100366.81;5031922;28;96846;-66
2022/10/01 07:31:28;;;;;;;7.47;6.13;;;;;;;14.87;52.64;100369.81;5033092;27;98885;-66
2022/10/01 07:33:58;;;;;;;9.55;5.45;;;;;;;15.15;52.07;100364.56;5031346;27;99034;-66
2022/10/01 07:36:24;;;;;;;9.50;5.93;;;;;;;15.05;52.15;100348.28;5032232;27;98986;-66
2022/10/01 07:38:51;;;;;;;7.25;5.68;;;;;;;14.97;52.90;100349.66;5029467;27;98432;-66
2022/10/01 07:41:21;;;;;;;8.98;5.95;;;;;;;15.31;51.88;100349.34;5026683;27;98127;-66
2022/10/01 07:43:50;;;;;;;9.68;5.90;;;;;;;15.17;52.16;100344.00;5026641;27;99005;-67
2022/10/01 07:46:16;;;;;;;14.30;7.22;;;;;;;15.20;52.09;100337.66;5024119;27;99297;-67
2022/10/01 07:48:52;;;;;;;10.98;6.30;;;;;;;15.42;51.67;100341.59;5027968;27;97247;-66
2022/10/01 07:51:23;;;;;;;6.75;5.80;;;;;;;15.46;51.51;100331.59;5028926;28;96891;-67
2022/10/01 07:53:57;;;;;;;9.68;6.00;;;;;;;15.74;51.05;100333.41;5027424;27;99027;-66
2022/10/01 07:56:30;;;;;;;8.57;5.65;;;;;;;15.61;51.47;100332.47;5027848;27;99267;-67
2022/10/01 07:59:00;;;;;;;9.98;5.65;;;;;;;15.54;51.37;100326.69;5027824;27;97152;-67
2022/10/01 08:01:30;;;;;;;7.63;5.45;;;;;;;15.75;50.89;100330.63;5023226;28;97146;-67
2022/10/01 08:03:56;;;;;;;13.05;5.90;;;;;;;15.75;51.06;100316.50;5025213;27;101165;-66
2022/10/01 08:06:50;;;;;;;8.70;5.43;;;;;;;15.71;51.18;100313.16;5021237;28;98864;-67
2022/10/01 08:09:19;;;;;;;10.05;5.93;;;;;;;15.87;50.94;100311.22;5025502;28;97605;-68
2022/10/01 08:11:49;;;;;;;17.67;6.40;;;;;;;16.11;50.45;100316.78;5027520;27;97132;-66
2022/10/01 08:14:18;;;;;;;10.73;5.18;;;;;;;16.25;49.87;100310.53;5019469;28;98538;-68
2022/10/01 08:16:48;;;;;;;12.25;5.40;;;;;;;16.22;49.99;100306.25;5026562;27;98812;-66
2022/10/01 08:19:17;;;;;;;9.40;5.50;;;;;;;16.34;49.84;100301.94;5024028;28;97599;-67
2022/10/01 08:21:48;;;;;;;14.45;5.43;;;;;;;16.48;49.75;100298.34;5023657;27;97524;-68
2022/10/01 08:24:18;;;;;;;10.57;5.32;;;;;;;16.44;49.31;100292.38;5024445;28;98912;-66
2022/10/01 08:26:45;;;;;;;11.30;6.03;;;;;;;16.28;50.11;100289.00;5026287;27;99157;-67
2022/10/01 08:29:13;;;;;;;11.70;5.60;;;;;;;16.44;49.78;100286.19;5028706;28;97002;-67
2022/10/01 08:31:43;;;;;;;6.95;5.30;;;;;;;16.27;49.93;100285.50;5026301;27;97449;-66
2022/10/01 08:34:15;;;;;;;7.97;5.20;;;;;;;16.27;50.00;100295.31;5025609;27;99006;-66
2022/10/01 08:36:42;;;;;;;7.78;5.47;;;;;;;16.57;49.54;100281.72;5028902;28;101561;-67
2022/10/01 08:39:16;;;;;;;7.55;5.10;;;;;;;16.68;48.90;100282.72;5026735;28;97207;-67
2022/10/01 08:41:59;;;;;;;7.68;5.10;;;;;;;16.61;49.34;100278.78;5029268;28;96739;-67
2022/10/01 08:44:29;;;;;;;9.32;5.35;;;;;;;16.55;49.64;100279.16;5020398;27;101241;-66
2022/10/01 08:47:12;;;;;;;7.40;4.93;;;;;;;16.83;49.02;100280.84;5022195;27;99694;-67
2022/10/01 08:49:42;;;;;;;13.38;5.45;;;;;;;16.79;49.09;100270.50;5024583;27;97111;-70
2022/10/01 08:52:20;;;;;;;7.47;5.07;;;;;;;16.86;48.63;100277.13;5024588;27;96921;-66
2022/10/01 08:55:00;;;;;;;6.93;4.75;;;;;;;16.85;48.93;100273.59;5024774;28;98988;-66
2022/10/01 08:57:43;;;;;;;6.38;4.85;;;;;;;16.90;48.79;100270.59;5025972;28;97596;-67
2022/10/01 09:00:13;;;;;;;7.60;4.53;;;;;;;17.12;48.21;100271.69;5024622;27;98330;-68
2022/10/01 09:02:48;;;;;;;7.45;4.55;;;;;;;17.10;48.08;100260.25;5027801;27;97587;-67
2022/10/01 09:05:23;;;;;;;7.22;4.35;;;;;;;17.10;48.24;100252.25;5024607;28;98971;-67
2022/10/01 09:08:01;;;;;;;9.30;5.07;;;;;;;16.91;48.33;100245.63;5025691;28;99120;-67
2022/10/01 09:10:44;;;;;;;6.78;5.10;;;;;;;17.28;47.85;100238.53;5023775;27;97250;-67
2022/10/01 09:13:34;;;;;;;6.25;4.10;;;;;;;17.41;47.17;100242.06;5023189;28;97554;-66
2022/10/01 09:16:14;;;;;;;6.40;3.95;;;;;;;17.45;46.81;100230.19;5021087;27;98913;-67
2022/10/01 09:18:53;;;;;;;7.97;4.18;;;;;;;17.63;46.41;100226.22;5019359;27;99410;-66
2022/10/01 09:21:26;;;;;;;6.22;3.90;;;;;;;17.54;46.71;100222.34;5012681;27;102218;-66
2022/10/01 09:24:04;;;;;;;5.57;3.95;;;;;;;17.09;47.28;100209.63;5024316;27;97568;-67
2022/10/01 09:26:34;;;;;;;13.23;4.53;;;;;;;17.64;46.69;100203.88;5025589;27;99393;-67
2022/10/01 09:29:15;;;;;;;;;;;;;;;;;;;;;
2022/10/01 09:31:51;;;;;;;5.15;3.45;;;;;;;17.93;45.75;100193.69;5019697;27;115380;-67
2022/10/01 09:34:28;;;;;;;6.70;3.72;;;;;;;17.84;45.84;100197.94;5024920;28;96862;-66
2022/10/01 09:37:09;;;;;;;6.63;3.13;;;;;;;17.92;45.80;100192.00;5022728;27;99328;-68
2022/10/01 09:39:46;;;;;;;9.20;3.47;;;;;;;17.74;46.15;100194.22;5027297;28;99579;-68
2022/10/01 09:42:17;;;;;;;5.07;3.30;;;;;;;17.72;46.42;100188.13;5014241;27;97738;-67
2022/10/01 09:44:48;;;;;;;4.97;3.10;;;;;;;17.53;46.93;100191.25;5024438;27;96904;-68
2022/10/01 09:47:24;;;;;;;10.18;3.53;;;;;;;17.75;46.97;100197.75;5026291;27;101634;-67
2022/10/01 09:49:53;;;;;;;4.50;2.67;;;;;;;17.69;46.97;100191.03;5023887;27;99616;-66
2022/10/01 09:52:25;;;;;;;3.50;2.55;;;;;;;17.58;47.20;100182.09;5026000;27;97314;-67
2022/10/01 09:55:03;;;;;;;3.50;2.42;;;;;;;17.43;47.94;100168.88;5028604;28;97277;-67
2022/10/01 09:57:38;;;;;;;3.92;2.50;;;;;;;17.18;49.28;100173.44;5027204;27;98166;-66
2022/10/01 10:00:11;;;;;;;6.75;2.70;;;;;;;17.20;49.55;100168.84;5023405;28;99395;-66
2022/10/01 10:02:42;;;;;;;7.97;2.65;;;;;;;17.07;49.99;100167.03;5024521;28;96841;-66
2022/10/01 10:05:17;;;;;;;2.80;2.55;;;;;;;17.12;50.28;100169.38;5024186;28;97378;-67
2022/10/01 10:07:49;;;;;;;2.97;2.10;;;;;;;17.10;50.64;100157.97;5027621;28;101525;-67
2022/10/01 10:10:22;;;;;;;7.82;2.10;;;;;;;17.28;50.58;100158.44;5023630;28;98244;-66
2022/10/01 10:12:56;;;;;;;2.70;2.00;;;;;;;16.87;51.21;100164.91;5024021;27;97595;-66
2022/10/01 10:15:25;;;;;;;7.40;2.85;;;;;;;16.84;51.76;100158.97;5027306;28;99004;-66
2022/10/01 10:17:53;;;;;;;3.35;2.08;;;;;;;16.95;52.39;100156.38;5028820;27;98953;-66
2022/10/01 10:20:25;;;;;;;4.53;2.55;;;;;;;16.74;52.37;100162.25;5027879;28;98928;-66
2022/10/01 10:22:53;;;;;;;4.18;2.30;;;;;;;16.80;53.32;100162.81;5030200;28;96751;-67
2022/10/01 10:25:23;;;;;;;7.50;2.97;;;;;;;16.70;54.13;100162.59;5029650;28;98644;-67
2022/10/01 10:27:54;;;;;;;6.90;2.97;;;;;;;16.23;55.40;100153.34;5030722;28;98957;-66
2022/10/01 10:30:23;;;;;;;5.43;3.08;;;;;;;16.44;56.21;100156.38;5027136;28;98908;-67
2022/10/01 10:32:54;;;;;;;5.20;3.00;;;;;;;16.69;55.47;100150.22;5029687;27;97402;-66
2022/10/01 10:35:30;;;;;;;6.15;2.65;;;;;;;16.62;55.72;100155.13;5030634;27;97014;-66
2022/10/01 10:37:57;;;;;;;6.25;4.07;;;;;;;16.56;56.34;100150.19;5034180;28;99361;-66
2022/10/01 10:40:26;;;;;;;7.45;3.30;;;;;;;16.48;56.56;100157.00;5034357;28;99188;-66
2022/10/01 10:42:58;;;;;;;4.97;3.40;;;;;;;16.32;57.42;100155.41;5034782;27;96874;-66
2022/10/01 10:45:32;;;;;;;6.97;4.18;;;;;;;16.30;58.46;100148.47;5034446;28;96766;-67
2022/10/01 10:48:04;;;;;;;5.55;4.53;;;;;;;16.43;58.34;100138.66;5034339;27;98830;-66
2022/10/01 10:50:33;;;;;;;6.82;3.65;;;;;;;15.96;59.10;100133.91;5032146;27;99269;-67
2022/10/01 10:53:11;;;;;;;5.80;4.00;;;;;;;16.31;58.63;100139.50;5032304;28;96964;-68
2022/10/01 10:55:38;;;;;;;5.93;4.05;;;;;;;16.29;58.58;100134.28;5029152;28;96820;-67
2022/10/01 10:58:15;;;;;;;6.30;4.32;;;;;;;16.28;59.36;100127.22;5033592;28;98909;-67
2022/10/01 11:00:47;;;;;;;4.88;3.40;;;;;;;15.95;59.23;100137.50;5034018;27;99352;-67
2022/10/01 11:03:15;;;;;;;8.25;4.20;;;;;;;16.04;60.15;100128.91;5034472;28;96832;-67
2022/10/01 11:05:43;;;;;;;6.40;4.07;;;;;;;15.98;60.84;100131.13;5033884;27;96847;-67
2022/10/01 11:08:19;;;;;;;8.95;4.22;;;;;;;16.01;60.27;100137.13;5033588;28;98952;-67
2022/10/01 11:10:56;;;;;;;7.38;4.53;;;;;;;15.75;60.74;100136.19;5033939;28;99214;-67
2022/10/01 11:13:38;;;;;;;7.47;4.88;;;;;;;15.91;61.47;100128.03;5033342;28;96871;-66
2022/10/01 11:16:28;;;;;;;6.03;4.40;;;;;;;15.81;61.76;100124.28;5032622;28;98395;-66
2022/10/01 11:19:10;;;;;;;5.93;4.90;;;;;;;16.09;60.69;100123.25;5031055;28;99008;-66
2022/10/01 11:21:49;;;;;;;8.27;4.53;;;;;;;16.02;60.93;100122.81;5028559;28;98955;-67
2022/10/01 11:24:28;;;;;;;5.22;4.22;;;;;;;16.06;60.61;100118.16;5032679;28;96836;-67
2022/10/01 11:27:01;;;;;;;5.18;4.25;;;;;;;16.00;60.97;100114.09;5031036;28;96687;-67
2022/10/01 11:29:43;;;;;;;7.97;4.95;;;;;;;16.02;60.90;100116.63;5033193;28;99050;-67
2022/10/01 11:32:21;;;;;;;5.82;4.22;;;;;;;15.94;60.96;100103.84;5030964;28;101281;-66
2022/10/01 11:35:24;;;;;;;7.85;4.80;;;;;;;16.28;60.57;100102.38;5033370;27;96779;-66
2022/10/01 11:38:21;;;;;;;6.53;4.10;;;;;;;16.75;59.18;100101.75;5025359;28;96752;-68
2022/10/01 11:40:50;;;;;;;4.53;3.65;;;;;;;16.72;58.27;100102.84;5029893;28;98986;-66
2022/10/01 11:43:25;;;;;;;4.43;3.63;;;;;;;16.37;59.47;100106.22;5027475;28;98944;-68